Bad Goisen, Austria
Current Conditions -  °F | °C
As of 6:20 AM on Saturday 25 Oct 2014 (Local Time) from LOWS Reporting Station
Few Clouds Few Clouds  
Wind Chill: 34°   Ceiling: Unl
Heat Index: 34°   Visibility: 5mi
Dew Point: 34°   Wind: 3mph
Humidity: 100%   Direction: 150°SSE
Pressure: 30.12"   Gusts: NA
Location:  47.65°N, 13.63°E
Report Text: LOWS 250420Z 15003KT 120V190 8000 FEW001 01/01 Q1020 NOSIG
Loading
Personal Weather Stations






























Interactive Weather Map
Tropical Storm Tracking
New forecast layout! Learn more

10-Day Weather Forecast

Advertisements
Track Severe Weather on mobile